Mead, Washington
Current Conditions -  °F | °C
As of 6:53 AM on Monday 24 Nov 2014 (Local Time) from KSFF Reporting Station
Clear Clear  
Wind Chill: 29°   Ceiling: Unl
Heat Index: 29°   Visibility: 10mi
Dew Point: 27°   Wind: 3mph
Humidity: 92%   Direction: 60°ENE
Pressure: 30.34"   Gusts: NA
Location:  47.77°N, 117.36°W
Report Text: KSFF 241453Z 06003KT 10SM CLR M02/M03 A3034 RMK AO2 SLP289 I1000 I3000 T10171028 51020
Loading
Personal Weather Stations






























Interactive Weather Map New forecast layout! Learn more

10-Day Weather Forecast

Advertisements
Track Severe Weather on mobile